createdAt,value
2023-03-27T00:00:31.072Z,94235.7
2023-03-27T00:01:33.445Z,94236.6
2023-03-27T00:02:35.981Z,94233.9
2023-03-27T00:03:38.734Z,94236.5
2023-03-27T00:04:40.797Z,94232.9
2023-03-27T00:05:42.900Z,94231.6
2023-03-27T00:06:44.974Z,94227.2
2023-03-27T00:07:47.089Z,94228.8
2023-03-27T00:08:49.227Z,94230.6
2023-03-27T00:09:51.319Z,94227.3
2023-03-27T00:10:53.311Z,94230
2023-03-27T00:11:55.755Z,94229.5
2023-03-27T00:12:57.556Z,94230.1
2023-03-27T00:13:59.445Z,94234
2023-03-27T00:15:01.705Z,94230
2023-03-27T00:16:03.813Z,94232.5
2023-03-27T00:17:05.906Z,94230.3
2023-03-27T00:18:08.380Z,94233.4
2023-03-27T00:19:10.435Z,94232.6
2023-03-27T00:20:12.329Z,94232.7
2023-03-27T00:21:14.584Z,94233.9
2023-03-27T00:22:16.727Z,94233.9
2023-03-27T00:23:18.610Z,94233
2023-03-27T00:24:20.344Z,94235.4
2023-03-27T00:25:22.034Z,94235.8
2023-03-27T00:26:23.976Z,94236.7
2023-03-27T00:27:26.083Z,94236.4
2023-03-27T00:28:28.181Z,94235.6
2023-03-27T00:29:30.304Z,94234.1
2023-03-27T00:30:32.384Z,94232.6
2023-03-27T00:31:34.517Z,94236.6
2023-03-27T00:32:36.903Z,94237
2023-03-27T00:33:39.148Z,94234.1
2023-03-27T00:34:41.256Z,94236.6
2023-03-27T00:35:43.334Z,94232
2023-03-27T00:36:45.331Z,94237.4
2023-03-27T00:37:46.828Z,94236.8
2023-03-27T00:38:48.754Z,94237.9
2023-03-27T00:39:50.741Z,94240.3
2023-03-27T00:40:52.541Z,94239.3
2023-03-27T00:41:54.776Z,94239.7
2023-03-27T00:42:56.462Z,94239.4
2023-03-27T00:43:58.467Z,94238.5
2023-03-27T00:45:00.382Z,94240.7
2023-03-27T00:46:02.523Z,94243.6
2023-03-27T00:47:04.318Z,94244.1
2023-03-27T00:48:06.519Z,94238
2023-03-27T00:49:08.574Z,94241.4
2023-03-27T00:50:10.486Z,94244.1
2023-03-27T00:51:12.194Z,94242.7
2023-03-27T00:52:14.281Z,94246.2
2023-03-27T00:53:16.346Z,94246
2023-03-27T00:54:18.283Z,94248.4
2023-03-27T00:55:19.990Z,94250
2023-03-27T00:56:21.705Z,94249.9
2023-03-27T00:57:23.799Z,94251.7
2023-03-27T00:58:25.527Z,94255.1
2023-03-27T00:59:27.408Z,94255.1
2023-03-27T01:00:29.279Z,94255.9
2023-03-27T01:01:31.481Z,94254.9
2023-03-27T01:02:33.909Z,94251
2023-03-27T01:03:36.674Z,94250.5
2023-03-27T01:04:39.052Z,94248.1
2023-03-27T01:05:40.934Z,94248.1
2023-03-27T01:06:43.258Z,94248.6
2023-03-27T01:08:50.367Z,94244.9
2023-03-27T01:09:52.468Z,94245.2
2023-03-27T01:10:55.018Z,94242
2023-03-27T01:11:57.514Z,94241.8
2023-03-27T01:12:59.632Z,94244.4
2023-03-27T01:14:01.744Z,94244.5
2023-03-27T01:15:03.636Z,94245.2
2023-03-27T01:16:05.982Z,94241
2023-03-27T01:17:08.163Z,94242.7
2023-03-27T01:18:10.276Z,94242.6
2023-03-27T01:19:12.445Z,94249.4
2023-03-27T01:20:14.659Z,94244.7
2023-03-27T01:21:16.576Z,94246.4
2023-03-27T01:22:18.453Z,94243
2023-03-27T01:24:25.527Z,94250
2023-03-27T01:25:27.604Z,94247.3
2023-03-27T01:28:40.455Z,94242.6
2023-03-27T01:29:42.532Z,94244.8
2023-03-27T01:30:44.414Z,94244.1
2023-03-27T01:31:46.564Z,94243.4
2023-03-27T01:32:48.895Z,94241
2023-03-27T01:33:51.098Z,94242.7
2023-03-27T01:35:58.311Z,94241.1
2023-03-27T01:37:00.509Z,94240.4
2023-03-27T01:38:02.397Z,94245.4
2023-03-27T01:39:04.119Z,94243
2023-03-27T01:40:06.186Z,94240.5
2023-03-27T01:41:08.277Z,94239.7
2023-03-27T01:42:10.386Z,94241.5
2023-03-27T01:43:12.464Z,94237.7
2023-03-27T01:44:14.355Z,94237.5
2023-03-27T01:45:16.483Z,94240.5
2023-03-27T01:46:18.785Z,94237.5
2023-03-27T01:47:20.739Z,94246.5
2023-03-27T01:48:23.019Z,94245.2
2023-03-27T01:49:24.746Z,94246.1
2023-03-27T01:50:26.873Z,94247.5
2023-03-27T01:51:29.195Z,94249.7
2023-03-27T01:52:31.107Z,94250.7
2023-03-27T01:53:33.013Z,94255
2023-03-27T01:54:35.113Z,94254.2
2023-03-27T01:55:37.243Z,94258.6
2023-03-27T01:56:39.523Z,94253.9
2023-03-27T01:58:46.830Z,94255.6
2023-03-27T01:59:48.942Z,94262.3
2023-03-27T02:01:55.995Z,94262
2023-03-27T02:02:58.119Z,94259.8
2023-03-27T02:04:00.298Z,94261.8
2023-03-27T02:05:02.338Z,94264
2023-03-27T02:06:04.518Z,94259.9
2023-03-27T02:07:06.526Z,94262.4
2023-03-27T02:08:08.619Z,94264
2023-03-27T02:09:10.706Z,94256.7
2023-03-27T02:10:12.613Z,94256.3
2023-03-27T02:11:14.484Z,94255.9
2023-03-27T02:12:16.580Z,94256
2023-03-27T02:13:18.726Z,94263.5
2023-03-27T02:14:20.798Z,94259.6
2023-03-27T02:16:27.866Z,94261.2
2023-03-27T02:17:30.144Z,94267
2023-03-27T02:18:32.293Z,94267.9
2023-03-27T02:19:34.370Z,94267.2
2023-03-27T02:20:36.310Z,94262.4
2023-03-27T02:21:38.233Z,94267.9
2023-03-27T02:22:40.679Z,94262.4
2023-03-27T02:23:42.603Z,94266.1
2023-03-27T02:24:44.579Z,94267.9
2023-03-27T02:25:46.556Z,94268.8
2023-03-27T02:26:48.455Z,94269.3
2023-03-27T02:27:50.334Z,94270.6
2023-03-27T02:28:52.440Z,94269
2023-03-27T02:29:54.351Z,94273.6
2023-03-27T02:32:01.739Z,94273.7
2023-03-27T02:33:03.946Z,94273.2
2023-03-27T02:34:05.995Z,94278.4
2023-03-27T02:35:08.093Z,94282.8
2023-03-27T02:37:15.201Z,94279.9
2023-03-27T02:38:17.362Z,94281.8
2023-03-27T02:39:19.551Z,94284.4
2023-03-27T02:40:21.223Z,94286.6
2023-03-27T02:41:23.348Z,94280.7
2023-03-27T02:42:25.441Z,94286.6
2023-03-27T02:43:27.317Z,94282.4
2023-03-27T02:44:29.235Z,94291.3
2023-03-27T02:45:31.500Z,94285.3
2023-03-27T02:46:33.323Z,94290.1
2023-03-27T02:47:35.587Z,94290.3
2023-03-27T02:48:37.731Z,94292.4
2023-03-27T02:49:39.801Z,94300
2023-03-27T02:50:41.673Z,94306.6
2023-03-27T02:51:43.584Z,94297.5
2023-03-27T02:52:45.832Z,94298.7
2023-03-27T02:53:48.158Z,94302.4
2023-03-27T02:54:50.397Z,94299.4
2023-03-27T02:55:52.354Z,94305.2
2023-03-27T02:56:54.325Z,94309.8
2023-03-27T02:57:56.390Z,94302.2
2023-03-27T02:58:58.345Z,94301.2
2023-03-27T03:00:00.299Z,94308.7
2023-03-27T03:01:02.497Z,94308.4
2023-03-27T03:02:04.804Z,94303.7
2023-03-27T03:03:07.355Z,94308.4
2023-03-27T03:04:09.820Z,94310.1
2023-03-27T03:05:11.513Z,94313.2
2023-03-27T03:06:13.598Z,94316.1
2023-03-27T03:07:15.764Z,94312.9
2023-03-27T03:08:17.687Z,94319.5
2023-03-27T03:09:19.855Z,94318.4
2023-03-27T03:10:21.952Z,94319.3
2023-03-27T03:11:23.859Z,94318.9
2023-03-27T03:12:25.816Z,94318.3
2023-03-27T03:13:27.688Z,94319
2023-03-27T03:14:29.408Z,94317.9
2023-03-27T03:15:31.357Z,94321.9
2023-03-27T03:16:33.266Z,94319.9
2023-03-27T03:17:35.668Z,94324.3
2023-03-27T03:18:37.874Z,94317.6
2023-03-27T03:19:39.810Z,94319.8
2023-03-27T03:20:41.705Z,94324.2
2023-03-27T03:21:43.801Z,94322.8
2023-03-27T03:22:45.691Z,94323
2023-03-27T03:24:52.635Z,94326.2
2023-03-27T03:25:54.777Z,94330.5
2023-03-27T03:26:56.666Z,94331.5
2023-03-27T03:27:58.778Z,94333.1
2023-03-27T03:29:02.571Z,94330.5
2023-03-27T03:30:04.673Z,94339.7
2023-03-27T03:31:07.157Z,94339.3
2023-03-27T03:32:09.315Z,94342.8
2023-03-27T03:33:11.398Z,94342.1
2023-03-27T03:34:13.328Z,94345.2
2023-03-27T03:35:15.433Z,94340.2
2023-03-27T03:36:17.525Z,94345.1
2023-03-27T03:37:19.917Z,94345.5
2023-03-27T03:38:22.102Z,94347.8
2023-03-27T03:39:24.033Z,94351.7
2023-03-27T03:40:26.255Z,94352.8
2023-03-27T03:41:28.197Z,94349.6
2023-03-27T03:42:30.069Z,94345
2023-03-27T03:43:31.996Z,94348.6
2023-03-27T03:44:34.068Z,94348.9
2023-03-27T03:45:36.013Z,94353.3
2023-03-27T03:46:38.520Z,94356.9
2023-03-27T03:47:41.297Z,94356.2
2023-03-27T03:48:43.525Z,94359.5
2023-03-27T03:49:45.507Z,94362.2
2023-03-27T03:50:47.456Z,94360.2
2023-03-27T03:52:54.518Z,94365.9
2023-03-27T03:53:56.396Z,94370
2023-03-27T03:54:58.502Z,94369.7
2023-03-27T03:56:00.580Z,94370.9
2023-03-27T03:57:03.493Z,94374.5
2023-03-27T03:58:05.684Z,94375.8
2023-03-27T03:59:07.352Z,94374.1
2023-03-27T04:00:09.613Z,94381
2023-03-27T04:01:11.520Z,94383.3
2023-03-27T04:02:13.937Z,94385.8
2023-03-27T04:03:16.272Z,94389.1
2023-03-27T04:04:18.481Z,94385.2
2023-03-27T04:05:20.569Z,94389.7
2023-03-27T04:06:22.984Z,94388.7
2023-03-27T04:07:25.081Z,94396.4
2023-03-27T04:08:26.998Z,94399.8
2023-03-27T04:09:28.915Z,94403.8
2023-03-27T04:10:30.989Z,94406.9
2023-03-27T04:11:33.175Z,94399
2023-03-27T04:12:35.268Z,94391
2023-03-27T04:13:37.364Z,94396.8
2023-03-27T04:14:39.450Z,94396.9
2023-03-27T04:15:41.531Z,94392.8
2023-03-27T04:16:43.330Z,94395.8
2023-03-27T04:17:45.634Z,94398.8
2023-03-27T04:18:47.954Z,94394.9
2023-03-27T04:19:50.196Z,94399.1
2023-03-27T04:20:52.257Z,94404.1
2023-03-27T04:21:54.354Z,94403.3
2023-03-27T04:22:56.423Z,94406.8
2023-03-27T04:23:58.526Z,94406.3
2023-03-27T04:24:59.834Z,94402.3
2023-03-27T04:26:02.378Z,94409.6
2023-03-27T04:27:04.412Z,94413.9
2023-03-27T04:28:06.444Z,94417.4
2023-03-27T04:29:08.534Z,94413.9
2023-03-27T04:30:10.650Z,94414.5
2023-03-27T04:31:12.628Z,94425.5
2023-03-27T04:32:14.591Z,94426
2023-03-27T04:33:16.723Z,94429.4
2023-03-27T04:34:18.817Z,94428.6
2023-03-27T04:35:20.875Z,94432
2023-03-27T04:36:23.117Z,94437.6
2023-03-27T04:37:25.333Z,94435.7
2023-03-27T04:38:27.211Z,94450
2023-03-27T04:39:29.246Z,94443.5
2023-03-27T04:40:31.360Z,94450.7
2023-03-27T04:41:33.451Z,94452.8
2023-03-27T04:42:35.400Z,94463.6
2023-03-27T04:43:37.778Z,94463.1
2023-03-27T04:44:39.675Z,94464.5
2023-03-27T04:45:41.768Z,94468.7
2023-03-27T04:46:43.857Z,94483.6
2023-03-27T04:47:46.181Z,94479.3
2023-03-27T04:48:48.364Z,94490.3
2023-03-27T04:49:50.449Z,94485.3
2023-03-27T04:50:52.441Z,94491.3
2023-03-27T04:51:55.271Z,94492.5
2023-03-27T04:52:57.424Z,94499
2023-03-27T04:53:59.351Z,94493.2
2023-03-27T04:55:01.449Z,94507.6
2023-03-27T04:56:03.335Z,94508.6
2023-03-27T04:57:05.661Z,94519.7
2023-03-27T04:58:08.055Z,94514
2023-03-27T04:59:09.853Z,94523
2023-03-27T05:00:11.728Z,94517.1
2023-03-27T05:01:14.051Z,94520.5
2023-03-27T05:02:15.874Z,94520.3
2023-03-27T05:03:18.278Z,94525.6
2023-03-27T05:04:20.436Z,94530.6
2023-03-27T05:05:22.566Z,94532.2
2023-03-27T05:06:24.700Z,94533.9
2023-03-27T05:07:26.833Z,94538.6
2023-03-27T05:08:28.536Z,94539
2023-03-27T05:09:30.659Z,94543.8
2023-03-27T05:10:32.564Z,94551.5
2023-03-27T05:11:34.558Z,94547.8
2023-03-27T05:12:36.661Z,94551.6
2023-03-27T05:13:38.627Z,94554.5
2023-03-27T05:14:40.759Z,94561.6
2023-03-27T05:15:42.646Z,94563.7
2023-03-27T05:16:44.942Z,94571.5
2023-03-27T05:17:47.155Z,94570.5
2023-03-27T05:18:49.343Z,94572.8
2023-03-27T05:19:51.068Z,94570.5
2023-03-27T05:20:52.934Z,94581.2
2023-03-27T05:21:54.819Z,94589.8
2023-03-27T05:22:56.956Z,94574
2023-03-27T05:23:58.856Z,94588.8
2023-03-27T05:25:00.942Z,94591.4
2023-03-27T05:26:02.672Z,94594.5
2023-03-27T05:27:04.566Z,94597.3
2023-03-27T05:28:06.674Z,94601.5
2023-03-27T05:29:08.654Z,94605.5
2023-03-27T05:30:10.835Z,94605.2
2023-03-27T05:31:12.957Z,94609.6
2023-03-27T05:32:15.246Z,94615.6
2023-03-27T05:33:17.351Z,94614.6
2023-03-27T05:34:19.527Z,94626
2023-03-27T05:35:21.785Z,94635.5
2023-03-27T05:36:23.954Z,94633.4
2023-03-27T05:38:30.832Z,94639.9
2023-03-27T05:39:32.728Z,94638.8
2023-03-27T05:40:34.658Z,94642
2023-03-27T05:41:36.557Z,94648.3
2023-03-27T05:42:38.476Z,94651.7
2023-03-27T05:43:40.612Z,94658.5
2023-03-27T05:44:43.006Z,94662.6
2023-03-27T05:45:45.300Z,94668.5
2023-03-27T05:46:47.431Z,94660
2023-03-27T05:47:49.485Z,94670.7
2023-03-27T05:48:51.274Z,94679.1
2023-03-27T05:49:53.369Z,94680
2023-03-27T05:50:56.324Z,94682.5
2023-03-27T05:51:58.823Z,94684.8
2023-03-27T05:53:00.733Z,94677.2
2023-03-27T05:54:02.687Z,94689.6
2023-03-27T05:55:04.797Z,94695.8
2023-03-27T05:56:06.717Z,94694.7
2023-03-27T05:57:08.875Z,94706.7
2023-03-27T05:58:11.226Z,94706.8
2023-03-27T05:59:13.413Z,94705.3
2023-03-27T06:00:15.762Z,94708.4
2023-03-27T06:01:17.688Z,94718.3
2023-03-27T06:03:25.169Z,94718.6
2023-03-27T06:04:27.804Z,94717.8
2023-03-27T06:05:30.143Z,94732.2
2023-03-27T06:06:32.057Z,94730.6
2023-03-27T06:07:34.283Z,94734.3
2023-03-27T06:08:36.399Z,94734.8
2023-03-27T06:09:38.517Z,94741.9
2023-03-27T06:10:40.576Z,94746
2023-03-27T06:11:42.661Z,94744.3
2023-03-27T06:12:45.012Z,94750.4
2023-03-27T06:13:52.190Z,94750.3
2023-03-27T06:14:54.195Z,94758
2023-03-27T06:15:57.511Z,94764.1
2023-03-27T06:17:00.174Z,94762.6
2023-03-27T06:18:02.237Z,94767
2023-03-27T06:19:03.863Z,94776.9
2023-03-27T06:20:05.830Z,94786.5
2023-03-27T06:21:07.966Z,94785.5
2023-03-27T06:22:10.113Z,94786.7
2023-03-27T06:23:12.218Z,94788.8
2023-03-27T06:24:14.105Z,94788.1
2023-03-27T06:25:16.848Z,94797.7
2023-03-27T06:26:18.958Z,94794.8
2023-03-27T06:27:20.877Z,94801.4
2023-03-27T06:28:23.005Z,94804.5
2023-03-27T06:29:24.915Z,94805.8
2023-03-27T06:30:26.481Z,94813.3
2023-03-27T06:31:28.944Z,94818.5
2023-03-27T06:32:31.487Z,94813.8
2023-03-27T06:33:33.669Z,94820
2023-03-27T06:34:35.792Z,94823.3
2023-03-27T06:35:38.062Z,94829.5
2023-03-27T06:36:40.472Z,94833.3
2023-03-27T06:37:42.640Z,94843.4
2023-03-27T06:38:44.566Z,94836.5
2023-03-27T06:39:46.680Z,94838.7
2023-03-27T06:40:48.853Z,94843.1
2023-03-27T06:41:51.010Z,94838.6
2023-03-27T06:42:53.108Z,94845.7
2023-03-27T06:43:55.209Z,94853.6
2023-03-27T06:44:57.315Z,94854.6
2023-03-27T06:46:00.306Z,94857.4
2023-03-27T06:47:02.821Z,94863.5
2023-03-27T06:49:09.802Z,94871.2
2023-03-27T06:50:11.689Z,94870
2023-03-27T06:51:13.679Z,94875
2023-03-27T06:52:15.815Z,94879.2
2023-03-27T06:54:22.952Z,94881.4
2023-03-27T06:55:24.838Z,94882.5
2023-03-27T06:56:26.966Z,94890.8
2023-03-27T06:57:28.871Z,94886.6
2023-03-27T06:58:30.976Z,94895
2023-03-27T06:59:32.876Z,94893.6
2023-03-27T07:00:34.959Z,94899.1
2023-03-27T07:01:36.932Z,94903.6
2023-03-27T07:02:39.097Z,94904.3
2023-03-27T07:03:41.099Z,94908.9
2023-03-27T07:05:48.410Z,94915.7
2023-03-27T07:06:50.460Z,94928.3
2023-03-27T07:07:52.172Z,94920.3
2023-03-27T07:08:54.597Z,94926
2023-03-27T07:09:56.548Z,94932.7
2023-03-27T07:12:03.719Z,94939.8
2023-03-27T07:13:05.907Z,94942.7
2023-03-27T07:14:07.861Z,94946.6
2023-03-27T07:15:09.975Z,94943.8
2023-03-27T07:16:12.309Z,94950.8
2023-03-27T07:17:14.466Z,94951.4
2023-03-27T07:18:16.653Z,94954
2023-03-27T07:19:18.892Z,94960.8
2023-03-27T07:20:20.605Z,94962.6
2023-03-27T07:21:22.511Z,94964
2023-03-27T07:22:24.633Z,94969.5
2023-03-27T07:23:26.621Z,94975.1
2023-03-27T07:24:28.654Z,94978.9
2023-03-27T07:25:30.769Z,94973.4
2023-03-27T07:26:32.887Z,94987.3
2023-03-27T07:27:35.101Z,94987
2023-03-27T07:28:36.998Z,94981
2023-03-27T07:29:38.738Z,94990.1
2023-03-27T07:30:40.854Z,94990.4
2023-03-27T07:32:48.180Z,94993.2
2023-03-27T07:33:51.078Z,95002.9
2023-03-27T07:34:53.457Z,94997.6
2023-03-27T07:35:56.427Z,95006.1
2023-03-27T07:36:58.830Z,95011.5
2023-03-27T07:38:00.980Z,95013.5
2023-03-27T07:39:02.936Z,95012.3
2023-03-27T07:40:05.082Z,95018.5
2023-03-27T07:41:07.277Z,95017.7
2023-03-27T07:42:09.472Z,95029.9
2023-03-27T07:43:11.630Z,95029.9
2023-03-27T07:44:13.347Z,95035.2
2023-03-27T07:45:15.473Z,95039.6
2023-03-27T07:46:17.604Z,95042.1
2023-03-27T07:47:19.813Z,95046.4
2023-03-27T07:48:21.972Z,95049.6
2023-03-27T07:50:29.196Z,95052.6
2023-03-27T07:51:31.341Z,95062.2
2023-03-27T07:52:33.468Z,95052.6
2023-03-27T07:53:35.884Z,95057.4
2023-03-27T07:54:38.023Z,95063.8
2023-03-27T07:55:40.192Z,95067.2
2023-03-27T07:56:42.363Z,95064.3
2023-03-27T07:58:49.597Z,95064.1
2023-03-27T07:59:51.697Z,95069
2023-03-27T08:00:53.857Z,95072.5
2023-03-27T08:01:55.991Z,95081
2023-03-27T08:02:58.783Z,95085.3
2023-03-27T08:04:01.720Z,95085.5
2023-03-27T08:05:04.603Z,95084.8
2023-03-27T08:06:07.099Z,95088.2
2023-03-27T08:07:09.129Z,95093
2023-03-27T08:08:10.868Z,95092.7
2023-03-27T08:09:13.015Z,95107
2023-03-27T08:10:14.967Z,95104.2
2023-03-27T08:12:21.839Z,95123.6
2023-03-27T08:13:23.768Z,95109.7
2023-03-27T08:14:25.749Z,95112.7
2023-03-27T08:15:27.938Z,95117.2
2023-03-27T08:16:30.974Z,95118.8
2023-03-27T08:17:33.655Z,95117.4
2023-03-27T08:18:35.699Z,95124.1
2023-03-27T08:19:37.776Z,95124.8
2023-03-27T08:20:39.685Z,95129.4
2023-03-27T08:21:41.697Z,95141.7
2023-03-27T08:22:43.721Z,95135.2
2023-03-27T08:23:45.842Z,95138.5
2023-03-27T08:24:47.792Z,95143.9
2023-03-27T08:25:49.894Z,95143.5
2023-03-27T08:26:51.841Z,95149
2023-03-27T08:27:53.977Z,95149.4
2023-03-27T08:28:55.975Z,95151.5
2023-03-27T08:29:58.140Z,95161.8
2023-03-27T08:32:05.074Z,95163.8
2023-03-27T08:33:08.906Z,95158.9
2023-03-27T08:34:11.140Z,95163.4
2023-03-27T08:35:13.440Z,95169.5
2023-03-27T08:36:16.069Z,95169.5
2023-03-27T08:37:18.255Z,95171.5
2023-03-27T08:39:25.409Z,95181.8
2023-03-27T08:40:27.848Z,95178.8
2023-03-27T08:41:30.231Z,95180.8
2023-03-27T08:42:31.994Z,95186.4
2023-03-27T08:43:34.184Z,95181.8
2023-03-27T08:44:36.306Z,95191.1
2023-03-27T08:45:38.442Z,95188.7
2023-03-27T08:46:40.699Z,95193.4
2023-03-27T08:47:42.717Z,95198.4
2023-03-27T08:48:44.857Z,95193.9
2023-03-27T08:49:46.780Z,95195.2
2023-03-27T08:50:48.894Z,95204.1
2023-03-27T08:51:50.825Z,95202.4
2023-03-27T08:52:53.010Z,95209.8
2023-03-27T08:53:55.200Z,95199.7
2023-03-27T08:54:57.281Z,95205.3
2023-03-27T08:56:00.043Z,95209.1
2023-03-27T08:57:02.449Z,95213.1
2023-03-27T08:58:04.741Z,95221.2
2023-03-27T08:59:06.453Z,95219.5
2023-03-27T09:00:08.627Z,95225.2
2023-03-27T09:01:10.363Z,95233
2023-03-27T09:02:12.448Z,95227.6
2023-03-27T09:03:15.305Z,95231.7
2023-03-27T09:04:17.689Z,95238.6
2023-03-27T09:05:19.821Z,95228.6
2023-03-27T09:06:21.756Z,95234
2023-03-27T09:07:23.862Z,95235
2023-03-27T09:08:25.666Z,95230.7
2023-03-27T09:09:28.232Z,95232.8
2023-03-27T09:10:30.884Z,95235.3
2023-03-27T09:11:33.438Z,95233.8
2023-03-27T09:12:35.951Z,95236.9
2023-03-27T09:13:39.271Z,95242.8
2023-03-27T09:14:41.407Z,95243.3
2023-03-27T09:15:43.662Z,95241.1
2023-03-27T09:16:48.176Z,95245.4
2023-03-27T09:17:50.476Z,95244.6
2023-03-27T09:18:52.257Z,95248.5
2023-03-27T09:19:54.192Z,95251.9
2023-03-27T09:20:56.155Z,95250.8
2023-03-27T09:21:58.092Z,95251.1
2023-03-27T09:23:00.216Z,95254.5
2023-03-27T09:24:02.564Z,95253.1
2023-03-27T09:25:04.841Z,95266.9
2023-03-27T09:26:06.678Z,95266.1
2023-03-27T09:27:09.066Z,95270.4
2023-03-27T09:28:11.204Z,95273.9
2023-03-27T09:30:18.475Z,95276.6
2023-03-27T09:31:20.465Z,95281.4
2023-03-27T09:32:22.539Z,95272.3
2023-03-27T09:33:24.717Z,95282.5
2023-03-27T09:34:26.751Z,95278
2023-03-27T09:35:29.000Z,95284.2
2023-03-27T09:36:31.340Z,95287.6
2023-03-27T09:37:37.354Z,95287.3
2023-03-27T09:38:39.269Z,95294.4
2023-03-27T09:39:41.489Z,95294.7
2023-03-27T09:40:43.625Z,95291
2023-03-27T09:41:45.757Z,95295.6
2023-03-27T09:42:47.882Z,95296.5
2023-03-27T09:43:50.005Z,95300.2
2023-03-27T09:44:51.953Z,95298.3
2023-03-27T09:45:54.162Z,95297.2
2023-03-27T09:46:56.947Z,95297.6
2023-03-27T09:47:59.141Z,95299.9
2023-03-27T09:49:01.253Z,95296.5
2023-03-27T09:50:03.347Z,95294.7
2023-03-27T09:51:05.475Z,95293.6
2023-03-27T09:52:07.619Z,95302.5
2023-03-27T09:53:09.782Z,95301.5
2023-03-27T09:54:11.971Z,95304.6
2023-03-27T09:55:14.169Z,95309.3
2023-03-27T09:56:16.085Z,95304.2
2023-03-27T09:57:18.476Z,95308.5
2023-03-27T09:58:20.808Z,95308.9
2023-03-27T09:59:22.939Z,95311.4
2023-03-27T10:00:25.103Z,95305.4
2023-03-27T10:01:27.255Z,95304.5
2023-03-27T10:02:29.519Z,95308.1
2023-03-27T10:03:32.039Z,95311.6
2023-03-27T10:04:34.245Z,95312.5
2023-03-27T10:05:36.427Z,95313.5
2023-03-27T10:06:38.615Z,95317.6
2023-03-27T10:07:40.616Z,95315
2023-03-27T10:08:42.601Z,95322.1
2023-03-27T10:09:44.588Z,95324
2023-03-27T10:10:46.857Z,95332.8
2023-03-27T10:11:48.994Z,95331.3
2023-03-27T10:12:51.085Z,95327.2
2023-03-27T10:13:53.316Z,95337.6
2023-03-27T10:14:55.273Z,95340.9
2023-03-27T10:15:57.449Z,95347.4
2023-03-27T10:16:59.813Z,95345.9
2023-03-27T10:18:02.276Z,95348.3
2023-03-27T10:19:04.313Z,95341.8
2023-03-27T10:20:06.083Z,95354.7
2023-03-27T10:21:08.038Z,95351.1
2023-03-27T10:23:15.193Z,95352.3
2023-03-27T10:24:17.406Z,95357.8
2023-03-27T10:25:19.584Z,95357.5
2023-03-27T10:26:21.783Z,95362.9
2023-03-27T10:27:23.908Z,95364.2
2023-03-27T10:28:26.076Z,95366.3
2023-03-27T10:29:28.059Z,95367.4
2023-03-27T10:30:30.211Z,95371.5
2023-03-27T10:31:32.599Z,95375.1
2023-03-27T10:32:35.163Z,95375
2023-03-27T10:33:37.311Z,95378.9
2023-03-27T10:34:39.248Z,95389.6
2023-03-27T10:35:41.287Z,95381.9
2023-03-27T10:36:43.236Z,95379.3
2023-03-27T10:38:50.152Z,95389
2023-03-27T10:39:52.317Z,95383.8
2023-03-27T10:40:54.287Z,95393.1
2023-03-27T10:41:56.688Z,95388.3
2023-03-27T10:42:58.829Z,95389.9
2023-03-27T10:44:01.009Z,95390.2
2023-03-27T10:45:03.173Z,95391.8
2023-03-27T10:46:05.633Z,95391.8
2023-03-27T10:47:08.006Z,95394.3
2023-03-27T10:48:10.191Z,95399.4
2023-03-27T10:49:12.362Z,95394.7
2023-03-27T10:50:14.779Z,95393.9
2023-03-27T10:51:16.869Z,95398.9
2023-03-27T10:52:18.702Z,95397.3
2023-03-27T10:53:20.873Z,95399.4
2023-03-27T10:54:23.376Z,95408.5
2023-03-27T10:55:25.969Z,95405.9
2023-03-27T10:56:27.874Z,95410.3
2023-03-27T10:57:30.021Z,95408.5
2023-03-27T10:58:32.167Z,95408
2023-03-27T11:00:39.347Z,95410.8
2023-03-27T11:01:41.729Z,95415.3
2023-03-27T11:02:44.002Z,95420.5
2023-03-27T11:03:46.100Z,95408.8
2023-03-27T11:04:48.222Z,95411
2023-03-27T11:05:50.128Z,95419.7
2023-03-27T11:06:52.250Z,95417.4
2023-03-27T11:07:54.444Z,95418.8
2023-03-27T11:08:56.365Z,95415.3
2023-03-27T11:09:58.513Z,95415.5
2023-03-27T11:11:00.797Z,95417.3
2023-03-27T11:12:02.777Z,95417
2023-03-27T11:13:04.826Z,95417
2023-03-27T11:14:07.158Z,95419.9
2023-03-27T11:15:09.126Z,95420.6
2023-03-27T11:16:11.120Z,95420.4
2023-03-27T11:17:13.340Z,95422.4
2023-03-27T11:18:15.331Z,95425.3
2023-03-27T11:19:17.442Z,95426.8
2023-03-27T11:20:19.354Z,95431.3
2023-03-27T11:21:21.308Z,95423.5
2023-03-27T11:22:23.051Z,95423.9
2023-03-27T11:23:25.178Z,95424.3
2023-03-27T11:24:27.091Z,95430
2023-03-27T11:25:29.224Z,95432
2023-03-27T11:26:31.187Z,95434.1
2023-03-27T11:27:33.289Z,95430
2023-03-27T11:28:35.125Z,95429.3
2023-03-27T11:29:37.353Z,95429.2
2023-03-27T11:30:39.548Z,95431.3
2023-03-27T11:31:41.988Z,95432.6
2023-03-27T11:32:44.366Z,95438
2023-03-27T11:33:46.458Z,95438.1
2023-03-27T11:34:48.367Z,95444.8
2023-03-27T11:35:50.763Z,95446.4
2023-03-27T11:36:52.984Z,95443.8
2023-03-27T11:37:55.120Z,95449.5
2023-03-27T11:38:57.270Z,95451.8
2023-03-27T11:39:59.387Z,95456.7
2023-03-27T11:41:01.555Z,95450.9
2023-03-27T11:42:03.731Z,95452.6
2023-03-27T11:43:05.839Z,95454.1
2023-03-27T11:44:07.880Z,95452.2
2023-03-27T11:45:10.081Z,95444.5
2023-03-27T11:46:12.538Z,95451.3
2023-03-27T11:47:14.690Z,95447.7
2023-03-27T11:48:16.900Z,95444.8
2023-03-27T11:49:19.112Z,95447.2
2023-03-27T11:50:21.232Z,95442.2
2023-03-27T11:51:23.339Z,95448.7
2023-03-27T11:52:25.441Z,95445.5
2023-03-27T11:53:27.407Z,95448.7
2023-03-27T11:54:29.509Z,95447.5
2023-03-27T11:55:33.655Z,95446.8
2023-03-27T11:56:36.030Z,95457.8
2023-03-27T11:57:38.077Z,95453.7
2023-03-27T11:58:40.191Z,95455.5
2023-03-27T11:59:42.208Z,95454.9
2023-03-27T12:00:44.484Z,95456.3
2023-03-27T12:01:46.397Z,95460.1
2023-03-27T12:02:49.243Z,95456.1
2023-03-27T12:03:52.157Z,95458.8
2023-03-27T12:04:54.709Z,95458.2
2023-03-27T12:05:56.801Z,95462.2
2023-03-27T12:08:03.871Z,95462.8
2023-03-27T12:09:05.995Z,95463.2
2023-03-27T12:10:08.156Z,95466
2023-03-27T12:11:10.078Z,95465.1
2023-03-27T12:12:12.176Z,95464.8
2023-03-27T12:13:13.898Z,95466
2023-03-27T12:15:20.830Z,95473
2023-03-27T12:16:23.047Z,95468.3
2023-03-27T12:17:25.409Z,95466.9
2023-03-27T12:21:45.078Z,95474.3
2023-03-27T12:22:47.202Z,95475
2023-03-27T12:23:49.327Z,95476.8
2023-03-27T12:25:56.410Z,95487.2
2023-03-27T12:26:58.514Z,95486.2
2023-03-27T12:28:00.614Z,95484.7
2023-03-27T12:29:02.632Z,95495.5
2023-03-27T12:30:08.993Z,95487.4
2023-03-27T12:31:11.140Z,95491.5
2023-03-27T12:32:13.581Z,95485.7
2023-03-27T12:33:15.826Z,95480
2023-03-27T12:34:17.910Z,95481.3
2023-03-27T12:36:25.075Z,95484.5
2023-03-27T12:37:27.238Z,95490.3
2023-03-27T12:38:29.366Z,95489.1
2023-03-27T12:39:31.140Z,95492.9
2023-03-27T12:40:32.861Z,95490
2023-03-27T12:41:34.572Z,95492.9
2023-03-27T12:43:41.667Z,95491.6
2023-03-27T12:44:43.371Z,95489.2
2023-03-27T12:46:50.746Z,95490.7
2023-03-27T12:47:53.078Z,95492.1
2023-03-27T12:48:55.298Z,95493.3
2023-03-27T12:49:57.220Z,95496.5
2023-03-27T12:51:00.670Z,95496.2
2023-03-27T12:52:03.128Z,95498.6
2023-03-27T12:53:05.061Z,95508.1
2023-03-27T12:54:06.956Z,95496.3
2023-03-27T12:55:09.120Z,95505.7
2023-03-27T12:56:10.874Z,95502.8
2023-03-27T12:57:13.567Z,95498.1
2023-03-27T12:58:16.433Z,95495.2
2023-03-27T12:59:18.792Z,95493.3
2023-03-27T13:00:20.850Z,95494
2023-03-27T13:01:23.180Z,95495
2023-03-27T13:02:26.002Z,95496.3
2023-03-27T13:03:28.470Z,95491.7
2023-03-27T13:04:30.568Z,95494.6
2023-03-27T13:05:32.727Z,95498.1
2023-03-27T13:06:34.429Z,95499.4
2023-03-27T13:07:36.179Z,95499.5
2023-03-27T13:08:37.873Z,95499.8
2023-03-27T13:09:39.792Z,95505.2
2023-03-27T13:10:41.905Z,95504.4
2023-03-27T13:11:43.834Z,95506.6
2023-03-27T13:12:46.540Z,95509.7
2023-03-27T13:13:48.275Z,95512.1
2023-03-27T13:14:50.408Z,95508.7
2023-03-27T13:15:52.711Z,95518.4
2023-03-27T13:16:54.526Z,95515.4